Rocky Mount Wilson Regional Airport
KRWI : rendu visible

Aérodrome :











RETROUVEZ-NOUS SUR...

 
LOGIN :

S'inscrire | Disclaimer

   EN    FR    IT 

 









Légende :    VFR   VFR Marginal   IFR   IFR Intensif   IFR Très Intensif
Visi : 
Plafond : 
>= 8 km
>= 3000ft
5 à 8 km
1000 à 3000 ft
1500m à 5 km
500 à 1000 ft
800 à 1500m
200 à 500 ft
< 800m
< 200 ft
Symboles :   Orages  Brouillard  Fortes neiges  Fortes précipitations  Vent > 20 kt






- Altitude de l'aérodrome : 159 ft
- Code IATA : RWI


KRWI - Rocky Mount Wilson Regional

DERNIER METAR :
  • 161753Z AUTO 25004KT 10SM CLR 12/01 A3018 RMK AO2 SLP221 T01170011 10122 21017 58034

METARs EXPIRÉS :
  • 161653Z AUTO VRB04KT 10SM CLR 11/01 A3023 RMK AO2 PRESFR SLP238 T01110011
  • 161553Z AUTO 23005KT 10SM CLR 08/01 A3028 RMK AO2 SLP255 T00830006

TAF KRWI
Valide du 16 à 18h jusqu'au 17 à 18h UTC


161740Z 1618/1718 23006KT P6SM BKN200
FM170200 VRB03KT 6SM -RA SCT022 BKN050 OVC090
FM170400 VRB03KT 5SM -RA BKN012 OVC035
FM170900 VRB02KT 6SM BR SCT006 BKN012
TEMPO 1710/1713 5SM BR BKN005
FM171300 03005KT P6SM FEW020 SCT200



MET'MAP, la Météo Aéronautique d'un coup d'oeil ! - Copyright ORBIFLY Décembre 2007 - Disclaimer

ORBIFLY MET'MAP TEAM :

Programmation & Développement : Alexandra Zaïnal
Sur une idée originale de : Baudouin d'Aumeries
Assistance à la programmation : Marc-Olivier Méhu
Soutien technique & logistique : Manuel Goepfert

Contact : metmap@orbifly.com




SOURCES & CREDITS :

   NOAA       Earth
Advisory